Time;durP1;ratioP1;P1;durP2;ratioP2;P2;SDS_P1;SDS_P2;PMS_P1;PMS_P2;Temp;Humidity;BMP_temperature;BMP_pressure;BME280_temperature;BME280_humidity;BME280_pressure;Samples;Min_cycle;Max_cycle;Signal;HPM_P1;HPM_P2
2022/07/07 00:01:39;;;;;;;11.10;5.05;;;;;;;15.35;65.49;99903.97;5119332;27;20550;-57
2022/07/07 00:04:04;;;;;;;16.92;4.82;;;;;;;15.37;65.38;99901.84;5117291;28;20469;-57
2022/07/07 00:06:30;;;;;;;12.65;4.88;;;;;;;15.42;65.17;99893.78;5122175;28;20488;-57
2022/07/07 00:08:56;;;;;;;10.85;4.90;;;;;;;15.43;65.32;99896.22;5121487;28;20035;-57
2022/07/07 00:11:24;;;;;;;10.65;4.82;;;;;;;15.48;65.36;99888.16;5118252;28;20043;-56
2022/07/07 00:13:49;;;;;;;12.85;5.22;;;;;;;15.42;65.37;99882.97;5100319;28;20378;-56
2022/07/07 00:16:15;;;;;;;15.82;4.88;;;;;;;15.36;65.72;99882.13;5120093;28;20035;-57
2022/07/07 00:18:40;;;;;;;12.23;5.03;;;;;;;15.40;65.71;99882.41;5101788;28;20019;-56
2022/07/07 00:21:06;;;;;;;10.52;5.18;;;;;;;15.41;65.98;99881.34;5126168;28;20079;-57
2022/07/07 00:23:31;;;;;;;14.52;5.00;;;;;;;15.30;66.59;99875.88;5117081;28;20510;-56
2022/07/07 00:25:57;;;;;;;7.03;4.57;;;;;;;15.32;66.24;99878.31;5123514;28;20039;-57
2022/07/07 00:28:22;;;;;;;8.18;5.15;;;;;;;15.34;66.65;99880.75;5123500;28;20466;-57
2022/07/07 00:30:47;;;;;;;9.20;4.30;;;;;;;15.15;67.16;99875.75;5118559;28;20027;-57
2022/07/07 00:33:13;;;;;;;6.00;4.13;;;;;;;15.09;67.79;99868.66;5095765;28;20562;-57
2022/07/07 00:35:38;;;;;;;10.20;4.18;;;;;;;15.05;67.64;99873.78;5116509;28;20417;-56
2022/07/07 00:38:04;;;;;;;10.32;4.35;;;;;;;14.96;68.27;99869.91;5123037;28;20032;-57
2022/07/07 00:40:29;;;;;;;8.13;4.45;;;;;;;14.91;68.84;99863.66;5120426;28;20023;-57
2022/07/07 00:42:55;;;;;;;12.77;3.97;;;;;;;14.79;69.17;99870.00;5121311;28;20030;-57
2022/07/07 00:45:20;;;;;;;15.63;3.72;;;;;;;14.77;69.25;99866.72;5117847;28;20028;-55
2022/07/07 00:47:46;;;;;;;9.77;4.15;;;;;;;14.82;69.08;99858.69;5117181;28;20739;-57
2022/07/07 00:50:11;;;;;;;9.60;4.50;;;;;;;14.84;68.96;99867.34;5118496;28;21058;-56
2022/07/07 00:52:37;;;;;;;8.57;3.85;;;;;;;14.83;69.07;99857.63;5092748;28;20031;-56
2022/07/07 00:55:02;;;;;;;8.02;3.90;;;;;;;14.82;69.25;99865.97;5111104;28;20039;-57
2022/07/07 00:57:28;;;;;;;7.88;4.30;;;;;;;14.85;69.50;99855.50;5121092;28;20027;-57
2022/07/07 00:59:57;;;;;;;8.32;3.90;;;;;;;14.84;69.18;99851.16;5102146;28;20402;-57
2022/07/07 01:02:22;;;;;;;10.65;4.10;;;;;;;14.77;69.54;99844.34;5077449;27;1165976;-57
2022/07/07 01:04:48;;;;;;;8.15;3.95;;;;;;;14.52;70.75;99850.25;5119383;27;20088;-56
2022/07/07 01:07:14;;;;;;;9.73;3.63;;;;;;;14.56;70.58;99846.84;5116088;27;20390;-57
2022/07/07 01:09:40;;;;;;;9.30;3.83;;;;;;;14.51;71.19;99846.75;5102070;28;20024;-57
2022/07/07 01:12:05;;;;;;;10.45;3.60;;;;;;;14.60;70.86;99847.97;5089925;27;20023;-57
2022/07/07 01:14:31;;;;;;;8.65;3.85;;;;;;;14.61;71.03;99840.69;5118620;27;20537;-57
2022/07/07 01:16:56;;;;;;;7.13;3.65;;;;;;;14.67;70.65;99836.97;5116275;27;20019;-57
2022/07/07 01:19:22;;;;;;;11.15;4.20;;;;;;;14.65;71.05;99839.09;5119785;27;20458;-57
2022/07/07 01:21:53;;;;;;;5.97;3.60;;;;;;;14.69;70.59;99832.13;5118310;27;20066;-56
2022/07/07 01:24:19;;;;;;;10.75;3.63;;;;;;;14.65;70.92;99831.84;5126511;27;20019;-57
2022/07/07 01:26:45;;;;;;;13.55;4.15;;;;;;;14.77;70.41;99818.16;5118024;27;20024;-57
2022/07/07 01:29:10;;;;;;;8.50;4.07;;;;;;;14.88;69.90;99819.09;5118542;27;20072;-57
2022/07/07 01:31:36;;;;;;;8.35;3.80;;;;;;;14.84;70.01;99813.38;5116698;27;20020;-57
2022/07/07 01:34:01;;;;;;;13.48;4.53;;;;;;;14.88;70.30;99814.50;5117964;27;20042;-57
2022/07/07 01:36:27;;;;;;;10.02;4.10;;;;;;;14.88;70.12;99809.09;5102465;27;20023;-57
2022/07/07 01:38:52;;;;;;;8.38;4.40;;;;;;;14.87;70.45;99801.25;5116717;27;20023;-56
2022/07/07 01:41:17;;;;;;;10.85;4.55;;;;;;;14.92;70.46;99808.59;5123340;27;20039;-56
2022/07/07 01:43:43;;;;;;;11.25;4.20;;;;;;;14.91;70.88;99807.78;5116023;27;20056;-56
2022/07/07 01:46:08;;;;;;;18.35;4.32;;;;;;;14.98;70.67;99808.38;5115329;27;20028;-57
2022/07/07 01:48:34;;;;;;;8.98;3.92;;;;;;;14.89;71.07;99802.63;5116930;27;20374;-56
2022/07/07 01:51:00;;;;;;;8.77;3.83;;;;;;;14.92;71.16;99798.59;5082192;28;20110;-56
2022/07/07 01:53:25;;;;;;;11.15;4.50;;;;;;;15.02;70.87;99792.47;5121370;27;20118;-57
2022/07/07 01:55:50;;;;;;;9.23;3.75;;;;;;;15.14;70.36;99795.00;5116997;27;20431;-57
2022/07/07 01:58:16;;;;;;;6.68;3.72;;;;;;;15.21;70.23;99796.41;5119702;27;20019;-57
2022/07/07 02:00:41;;;;;;;7.10;3.50;;;;;;;15.23;70.31;99798.84;5118784;27;20541;-57
2022/07/07 02:03:07;;;;;;;6.55;3.75;;;;;;;15.24;70.38;99803.97;5119442;27;20431;-57
2022/07/07 02:05:32;;;;;;;9.45;3.88;;;;;;;15.31;70.10;99796.47;5100490;28;20078;-57
2022/07/07 02:07:57;;;;;;;9.73;3.88;;;;;;;15.38;69.97;99803.56;5118855;27;20363;-58
2022/07/07 02:13:07;;;;;;;8.02;4.13;;;;;;;15.68;69.02;99806.44;5099427;27;20389;-57
2022/07/07 02:15:32;;;;;;;10.32;4.57;;;;;;;15.84;68.44;99809.25;5117864;27;20027;-57
2022/07/07 02:17:58;;;;;;;6.95;3.78;;;;;;;15.93;68.29;99807.66;5119366;27;20038;-57
2022/07/07 02:20:24;;;;;;;13.02;4.05;;;;;;;16.00;67.57;99802.84;5122428;27;20481;-57
2022/07/07 02:22:49;;;;;;;8.95;4.22;;;;;;;16.04;67.83;99803.13;5120533;27;20039;-57
2022/07/07 02:25:15;;;;;;;10.63;4.03;;;;;;;16.10;67.60;99799.34;5116557;27;20116;-57
2022/07/07 02:27:40;;;;;;;10.45;4.03;;;;;;;16.10;67.47;99796.63;5115876;27;20027;-57
2022/07/07 02:30:07;;;;;;;12.57;4.15;;;;;;;16.14;67.24;99798.53;5121549;27;20023;-57
2022/07/07 02:32:32;;;;;;;9.45;4.32;;;;;;;16.13;67.42;99793.41;5119668;27;20523;-57
2022/07/07 02:34:58;;;;;;;10.30;4.20;;;;;;;16.11;67.90;99784.75;5114297;27;20040;-57
2022/07/07 02:37:25;;;;;;;10.95;4.43;;;;;;;16.14;67.55;99778.81;5114009;27;20044;-57
2022/07/07 02:39:51;;;;;;;9.00;4.07;;;;;;;16.09;67.91;99776.09;5111083;27;20035;-57
2022/07/07 02:42:17;;;;;;;10.10;4.13;;;;;;;16.20;68.12;99780.47;5116227;27;20049;-57
2022/07/07 02:44:42;;;;;;;9.70;4.68;;;;;;;16.15;68.21;99773.16;5098478;27;20331;-57
2022/07/07 02:47:07;;;;;;;7.18;4.65;;;;;;;16.18;68.17;99767.19;5116750;27;20024;-56
2022/07/07 02:49:33;;;;;;;11.38;3.83;;;;;;;16.10;68.51;99765.03;5120864;27;20031;-57
2022/07/07 02:51:58;;;;;;;9.85;4.22;;;;;;;16.07;68.34;99760.13;5117677;27;20019;-57
2022/07/07 02:54:24;;;;;;;8.75;3.80;;;;;;;15.95;69.18;99756.88;5114864;28;20027;-57
2022/07/07 02:56:49;;;;;;;9.98;4.13;;;;;;;16.00;69.29;99759.59;5116683;28;20544;-57
2022/07/07 02:59:14;;;;;;;9.70;4.15;;;;;;;15.99;69.36;99763.34;5116742;28;20027;-57
2022/07/07 03:01:40;;;;;;;7.25;4.10;;;;;;;15.94;69.74;99764.13;5095692;28;20036;-57
2022/07/07 03:04:05;;;;;;;12.55;4.03;;;;;;;15.97;69.62;99760.09;5102331;28;20040;-57
2022/07/07 03:06:31;;;;;;;7.85;3.90;;;;;;;15.95;70.23;99763.06;5100132;28;20592;-57
2022/07/07 03:08:56;;;;;;;8.13;4.15;;;;;;;15.95;69.85;99756.88;5094120;28;20039;-58
2022/07/07 03:11:22;;;;;;;7.75;3.83;;;;;;;15.93;70.36;99764.41;5106136;28;20027;-57
2022/07/07 03:13:47;;;;;;;7.28;3.70;;;;;;;15.90;70.57;99767.63;5094385;28;20031;-57
2022/07/07 03:16:12;;;;;;;10.02;4.10;;;;;;;15.90;71.09;99764.94;5095863;28;20397;-57
2022/07/07 03:18:38;;;;;;;8.07;3.83;;;;;;;15.94;70.58;99766.84;5095159;28;20065;-57
2022/07/07 03:21:03;;;;;;;6.97;3.58;;;;;;;15.94;70.83;99766.03;5094173;28;20027;-57
2022/07/07 03:23:29;;;;;;;6.50;3.60;;;;;;;15.99;70.70;99767.94;5096720;28;20045;-57
2022/07/07 03:25:57;;;;;;;11.57;4.05;;;;;;;15.96;70.78;99763.88;5095968;28;20031;-57
2022/07/07 03:28:22;;;;;;;7.88;3.40;;;;;;;16.02;70.73;99767.41;5092678;28;20021;-56
2022/07/07 03:30:48;;;;;;;7.32;3.28;;;;;;;15.99;70.84;99763.34;5098317;28;20028;-57
2022/07/07 03:33:13;;;;;;;7.35;3.67;;;;;;;16.02;70.74;99762.81;5093235;28;20476;-57
2022/07/07 03:35:39;;;;;;;6.90;3.50;;;;;;;16.00;71.21;99765.00;5095550;28;20105;-57
2022/07/07 03:38:05;;;;;;;4.60;3.35;;;;;;;15.90;71.46;99757.66;5096594;28;20027;-56
2022/07/07 03:40:30;;;;;;;9.95;3.90;;;;;;;15.88;72.13;99750.88;5099597;28;20023;-57
2022/07/07 03:42:56;;;;;;;7.28;3.70;;;;;;;15.88;72.33;99750.88;5092083;28;20031;-57
2022/07/07 03:45:21;;;;;;;8.05;3.53;;;;;;;15.95;72.17;99756.88;5094935;28;20085;-57
2022/07/07 03:47:47;;;;;;;9.13;3.55;;;;;;;15.91;72.38;99750.34;5093527;28;20032;-57
2022/07/07 03:50:12;;;;;;;6.38;3.38;;;;;;;15.95;72.25;99754.97;5103357;28;20019;-57
2022/07/07 03:52:37;;;;;;;9.00;3.80;;;;;;;15.92;72.63;99743.84;5094142;28;20105;-56
2022/07/07 03:55:04;;;;;;;6.45;3.70;;;;;;;15.91;72.50;99742.25;5096417;28;20024;-57
2022/07/07 03:57:29;;;;;;;8.27;3.38;;;;;;;15.82;72.96;99719.50;5098656;28;20103;-57
2022/07/07 03:59:55;;;;;;;8.25;3.25;;;;;;;15.65;73.65;99720.50;5098114;28;20028;-57
2022/07/07 04:02:20;;;;;;;7.05;3.47;;;;;;;15.68;73.62;99725.38;5116899;27;20040;-57
2022/07/07 04:04:45;;;;;;;7.13;3.38;;;;;;;15.57;74.37;99712.88;5118628;27;20023;-56
2022/07/07 04:07:11;;;;;;;11.75;3.85;;;;;;;15.62;74.42;99712.91;5125197;27;20019;-57
2022/07/07 04:09:36;;;;;;;6.97;3.45;;;;;;;15.77;73.61;99717.59;5116219;27;20390;-57
2022/07/07 04:12:02;;;;;;;7.43;3.50;;;;;;;15.63;73.97;99709.13;5119430;27;20031;-57
2022/07/07 04:14:27;;;;;;;8.57;3.53;;;;;;;15.45;74.48;99717.69;5116910;27;20028;-57
2022/07/07 04:16:53;;;;;;;5.80;3.42;;;;;;;15.39;75.19;99721.44;5100063;27;20617;-56
2022/07/07 04:19:18;;;;;;;6.80;3.53;;;;;;;15.26;75.25;99712.72;5117837;27;20355;-57
2022/07/07 04:21:43;;;;;;;6.00;3.70;;;;;;;15.23;75.34;99715.16;5120429;27;20028;-60
2022/07/07 04:24:09;;;;;;;5.90;3.53;;;;;;;15.21;75.89;99715.41;5120322;27;20016;-57
2022/07/07 04:26:35;;;;;;;6.60;3.78;;;;;;;15.24;76.13;99712.16;5119614;27;20027;-57
2022/07/07 04:29:00;;;;;;;7.25;3.83;;;;;;;15.28;76.50;99717.88;5119385;27;20024;-56
2022/07/07 04:31:26;;;;;;;9.38;3.67;;;;;;;15.23;76.86;99713.25;5120364;27;20015;-58
2022/07/07 04:33:51;;;;;;;8.68;3.90;;;;;;;15.20;76.61;99719.19;5100845;27;20084;-57
2022/07/07 04:36:17;;;;;;;7.70;3.85;;;;;;;15.27;76.22;99718.94;5120806;27;20032;-56
2022/07/07 04:38:42;;;;;;;7.22;3.63;;;;;;;15.22;76.88;99717.00;5116436;27;20463;-56
2022/07/07 04:41:08;;;;;;;8.20;4.00;;;;;;;15.15;77.17;99719.16;5113630;27;20447;-56
2022/07/07 04:43:33;;;;;;;6.93;3.97;;;;;;;15.22;76.92;99717.00;5119030;27;20566;-56
2022/07/07 04:45:59;;;;;;;7.65;4.50;;;;;;;15.21;77.43;99712.69;5118496;27;20458;-56
2022/07/07 04:48:24;;;;;;;9.63;4.07;;;;;;;15.30;77.12;99719.25;5116006;27;20355;-56
2022/07/07 04:50:50;;;;;;;5.60;4.07;;;;;;;15.25;76.96;99710.28;5123208;27;20230;-58
2022/07/07 04:53:15;;;;;;;9.32;4.10;;;;;;;15.19;76.88;99700.53;5097561;27;20023;-57
2022/07/07 04:55:40;;;;;;;8.02;3.95;;;;;;;15.31;77.08;99701.16;5121437;27;20072;-60
2022/07/07 04:58:06;;;;;;;12.68;4.07;;;;;;;15.28;77.18;99701.69;5116590;27;20022;-56
2022/07/07 05:00:31;;;;;;;12.73;4.35;;;;;;;15.29;77.38;99701.41;5118394;27;20354;-55
2022/07/07 05:02:57;;;;;;;12.23;4.18;;;;;;;15.31;77.29;99706.56;5118857;27;20039;-57
2022/07/07 05:05:22;;;;;;;9.27;4.35;;;;;;;15.27;77.75;99702.75;5104991;28;20387;-56
2022/07/07 05:07:47;;;;;;;8.38;4.10;;;;;;;15.34;78.04;99713.31;5097830;28;20020;-57
2022/07/07 05:10:14;;;;;;;8.95;4.10;;;;;;;15.62;77.83;99707.50;5120513;27;20015;-57
2022/07/07 05:12:39;;;;;;;13.63;4.50;;;;;;;15.86;77.33;99709.78;5118777;27;20023;-57
2022/07/07 05:15:05;;;;;;;6.82;3.92;;;;;;;16.05;77.44;99704.69;5122859;27;20543;-57
2022/07/07 05:17:31;;;;;;;9.18;4.55;;;;;;;16.14;76.92;99706.59;5114981;27;20103;-57
2022/07/07 05:19:56;;;;;;;9.82;4.30;;;;;;;16.24;76.67;99705.81;5117973;27;20031;-58
2022/07/07 05:22:21;;;;;;;7.95;4.32;;;;;;;16.32;76.28;99718.00;5118208;27;20019;-57
2022/07/07 05:24:47;;;;;;;10.80;4.55;;;;;;;16.34;76.27;99716.66;5115750;27;20088;-57
2022/07/07 05:27:12;;;;;;;7.93;3.70;;;;;;;16.41;75.68;99710.97;5118455;27;20023;-57
2022/07/07 05:29:38;;;;;;;5.75;4.03;;;;;;;16.41;76.24;99710.97;5115105;27;20023;-57
2022/07/07 05:32:03;;;;;;;6.60;3.40;;;;;;;16.52;75.73;99711.78;5115706;27;20034;-57
2022/07/07 05:34:29;;;;;;;6.68;3.70;;;;;;;16.60;75.36;99706.69;5117594;27;20050;-57
2022/07/07 05:36:54;;;;;;;5.18;3.58;;;;;;;16.63;75.27;99705.31;5092083;27;20023;-57
2022/07/07 05:39:20;;;;;;;7.28;3.67;;;;;;;16.57;75.93;99704.50;5116408;27;20072;-57
2022/07/07 05:41:45;;;;;;;8.68;3.50;;;;;;;16.67;75.69;99708.28;5116752;27;20077;-58
2022/07/07 05:44:11;;;;;;;6.30;3.47;;;;;;;16.71;75.75;99717.50;5116491;27;20027;-56
2022/07/07 05:46:36;;;;;;;9.05;3.47;;;;;;;16.72;75.71;99711.78;5122555;27;20023;-57
2022/07/07 05:49:02;;;;;;;6.30;3.42;;;;;;;16.90;75.31;99713.19;5116697;27;20031;-57
2022/07/07 05:51:28;;;;;;;8.30;3.53;;;;;;;16.96;75.10;99711.28;5082396;28;20027;-57
2022/07/07 05:53:53;;;;;;;7.43;3.63;;;;;;;17.05;74.49;99709.66;5093331;28;20042;-57
2022/07/07 05:56:19;;;;;;;6.07;3.10;;;;;;;17.17;74.44;99710.19;5106962;27;20035;-57
2022/07/07 05:58:44;;;;;;;6.95;3.60;;;;;;;17.15;74.32;99706.13;5099189;27;20035;-57
2022/07/07 06:01:11;;;;;;;7.93;3.35;;;;;;;17.23;73.84;99695.53;5111044;27;20019;-58
2022/07/07 06:03:36;;;;;;;7.45;3.55;;;;;;;17.83;72.78;99713.78;5121007;27;20019;-57
2022/07/07 06:06:01;;;;;;;9.32;3.25;;;;;;;20.60;64.27;99717.25;5120851;27;20428;-57
2022/07/07 06:08:28;;;;;;;8.20;3.20;;;;;;;22.55;56.11;99725.13;5114973;27;20449;-57
2022/07/07 06:10:54;;;;;;;5.75;2.95;;;;;;;23.41;52.68;99724.84;5119782;27;20037;-57
2022/07/07 06:13:19;;;;;;;4.45;2.90;;;;;;;20.90;59.69;99727.63;5099076;28;20371;-58
2022/07/07 06:15:44;;;;;;;9.13;3.17;;;;;;;20.58;61.22;99724.91;5118928;27;20023;-57
2022/07/07 06:18:10;;;;;;;7.32;2.83;;;;;;;22.25;56.58;99732.13;5104667;27;20116;-57
2022/07/07 06:20:36;;;;;;;10.93;3.10;;;;;;;20.71;61.09;99717.88;5115693;27;20024;-56
2022/07/07 06:23:01;;;;;;;5.07;3.15;;;;;;;19.95;63.41;99724.13;5114062;27;20031;-56
2022/07/07 06:25:27;;;;;;;8.48;3.50;;;;;;;19.53;65.31;99714.84;5097741;28;20016;-56
2022/07/07 06:27:52;;;;;;;7.18;3.90;;;;;;;19.00;66.95;99731.16;5098045;28;20028;-55
2022/07/07 06:30:18;;;;;;;6.63;3.50;;;;;;;18.72;68.03;99721.84;5111282;27;20031;-58
2022/07/07 06:32:43;;;;;;;11.80;3.85;;;;;;;18.37;69.18;99722.94;5119331;27;20032;-56
2022/07/07 06:35:09;;;;;;;9.57;3.58;;;;;;;18.47;69.20;99725.56;5119990;27;20042;-56
2022/07/07 06:37:34;;;;;;;9.27;3.80;;;;;;;18.19;70.71;99719.78;5115562;27;20036;-56
2022/07/07 06:40:00;;;;;;;7.00;3.47;;;;;;;18.12;70.76;99722.00;5111787;27;20484;-57
2022/07/07 06:42:26;;;;;;;9.38;3.80;;;;;;;18.07;70.90;99727.47;5121066;27;20492;-58
2022/07/07 06:44:51;;;;;;;6.82;3.97;;;;;;;18.07;70.76;99716.59;5117470;27;20035;-56
2022/07/07 06:47:17;;;;;;;7.20;3.28;;;;;;;18.28;70.12;99707.25;5117248;27;20038;-56
2022/07/07 06:49:42;;;;;;;6.00;3.38;;;;;;;18.28;69.60;99704.56;5115952;27;20034;-56
2022/07/07 06:52:08;;;;;;;5.60;3.45;;;;;;;18.27;70.06;99708.38;5119123;28;20015;-56
2022/07/07 06:54:33;;;;;;;6.28;3.63;;;;;;;18.17;70.96;99713.03;5072329;28;20546;-56
2022/07/07 06:56:59;;;;;;;7.18;3.45;;;;;;;18.38;70.11;99708.28;5118988;28;20050;-55
2022/07/07 06:59:24;;;;;;;6.60;3.58;;;;;;;18.64;69.38;99709.69;5118327;28;20433;-56
2022/07/07 07:01:50;;;;;;;6.38;3.25;;;;;;;19.16;66.99;99719.03;5116114;28;20355;-56
2022/07/07 07:04:15;;;;;;;7.28;3.55;;;;;;;19.26;67.00;99714.59;5117389;28;20080;-56
2022/07/07 07:06:41;;;;;;;6.47;3.65;;;;;;;19.32;67.14;99705.28;5108458;28;20680;-56
2022/07/07 07:09:07;;;;;;;7.70;3.45;;;;;;;19.46;65.73;99710.84;5118626;28;20388;-56
2022/07/07 07:11:32;;;;;;;7.18;3.70;;;;;;;19.35;66.63;99699.28;5112462;28;20028;-59
2022/07/07 07:13:58;;;;;;;6.22;3.42;;;;;;;19.33;65.67;99702.28;5095746;28;20036;-58
2022/07/07 07:16:24;;;;;;;9.57;3.85;;;;;;;19.07;67.38;99715.34;5108102;28;20530;-58
2022/07/07 07:18:49;;;;;;;7.47;3.30;;;;;;;19.07;67.26;99707.19;5099876;28;20031;-57
2022/07/07 07:21:15;;;;;;;8.15;3.70;;;;;;;18.95;67.77;99714.91;5115092;28;20385;-57
2022/07/07 07:23:40;;;;;;;10.18;3.58;;;;;;;18.72;68.24;99719.97;5097670;28;20529;-57
2022/07/07 07:26:06;;;;;;;9.07;3.30;;;;;;;18.68;69.14;99727.06;5116321;28;20023;-56
2022/07/07 07:28:33;;;;;;;6.78;3.60;;;;;;;18.71;71.43;99723.75;5116354;27;20051;-56
2022/07/07 07:30:58;;;;;;;6.57;3.30;;;;;;;18.45;72.86;99720.44;5113748;27;20107;-56
2022/07/07 07:33:24;;;;;;;6.05;3.60;;;;;;;18.23;73.99;99729.00;5103059;27;20533;-56
2022/07/07 07:35:49;;;;;;;8.90;3.67;;;;;;;18.15;74.41;99728.78;5125499;27;20473;-56
2022/07/07 07:38:14;;;;;;;5.63;3.20;;;;;;;18.29;73.12;99733.28;5119354;27;20020;-56
2022/07/07 07:40:40;;;;;;;6.53;3.42;;;;;;;17.97;76.93;99733.78;5103790;27;20060;-56
2022/07/07 07:43:05;;;;;;;8.25;3.90;;;;;;;18.37;77.01;99750.91;5122167;27;20027;-57
2022/07/07 07:45:31;;;;;;;6.35;3.78;;;;;;;17.89;79.88;99761.44;5114364;27;20020;-56
2022/07/07 07:47:57;;;;;;;6.80;4.05;;;;;;;17.68;82.12;99766.13;5123053;27;20027;-55
2022/07/07 07:50:22;;;;;;;4.93;3.72;;;;;;;17.60;83.70;99774.81;5121691;27;20370;-56
2022/07/07 07:52:48;;;;;;;6.53;3.72;;;;;;;17.57;84.12;99770.78;5121890;27;20031;-56
2022/07/07 07:55:15;;;;;;;5.85;3.13;;;;;;;17.78;80.67;99770.69;5124847;27;20023;-57
2022/07/07 07:57:41;;;;;;;5.85;3.08;;;;;;;17.89;79.32;99761.44;5124808;27;20152;-57
2022/07/07 08:00:08;;;;;;;4.25;2.80;;;;;;;18.00;77.85;99763.03;5110567;27;20024;-57
2022/07/07 08:02:34;;;;;;;4.10;2.95;;;;;;;18.30;75.77;99763.97;5104692;27;20051;-57
2022/07/07 08:04:59;;;;;;;6.32;2.60;;;;;;;18.16;75.08;99766.47;5118786;27;20031;-57
2022/07/07 08:07:25;;;;;;;6.35;2.88;;;;;;;18.41;75.20;99772.84;5120092;27;20031;-57
2022/07/07 08:09:50;;;;;;;5.35;2.70;;;;;;;18.71;74.23;99777.25;5105863;27;20031;-57
2022/07/07 08:12:15;;;;;;;5.25;2.83;;;;;;;19.01;70.90;99776.22;5118451;27;20466;-57
2022/07/07 08:14:41;;;;;;;4.65;2.75;;;;;;;23.67;57.46;99776.13;5079468;28;20035;-57
2022/07/07 08:17:06;;;;;;;5.53;2.70;;;;;;;25.55;50.68;99765.00;5120395;27;20057;-57
2022/07/07 08:19:32;;;;;;;3.70;2.30;;;;;;;27.26;46.15;99761.69;5115813;27;20020;-57
2022/07/07 08:21:57;;;;;;;3.70;2.10;;;;;;;26.12;47.38;99761.03;5123496;27;20047;-57
2022/07/07 08:24:23;;;;;;;7.45;2.50;;;;;;;23.69;53.46;99762.94;5115724;27;20557;-56
2022/07/07 08:26:48;;;;;;;6.47;2.70;;;;;;;22.41;57.51;99755.22;5121368;27;20466;-56
2022/07/07 08:29:14;;;;;;;5.25;2.10;;;;;;;22.09;57.05;99756.16;5095679;27;20039;-57
2022/07/07 08:31:40;;;;;;;4.95;2.42;;;;;;;21.17;60.61;99760.66;5108184;27;20548;-56
2022/07/07 08:34:05;;;;;;;6.05;2.58;;;;;;;20.11;63.63;99775.63;5104583;27;20026;-56
2022/07/07 08:36:31;;;;;;;7.70;3.38;;;;;;;19.54;66.68;99795.28;5125685;27;20389;-57
2022/07/07 08:38:57;;;;;;;10.15;2.97;;;;;;;17.63;81.69;99804.09;5122202;27;20016;-58
2022/07/07 08:41:23;;;;;;;4.25;2.28;;;;;;;17.93;81.54;99799.69;5097807;27;20096;-56
2022/07/07 08:43:48;;;;;;;4.75;2.60;;;;;;;17.84;81.47;99797.53;5101325;27;20053;-55
2022/07/07 08:46:13;;;;;;;3.63;2.20;;;;;;;17.89;82.82;99794.78;5092243;27;20030;-56
2022/07/07 08:48:39;;;;;;;3.08;2.08;;;;;;;18.80;75.82;99796.53;5098318;28;20385;-56
2022/07/07 08:51:04;;;;;;;4.85;1.90;;;;;;;18.81;76.13;99788.06;5098120;28;20076;-56
2022/07/07 08:53:34;;;;;;;2.15;1.80;;;;;;;18.52;75.74;99796.09;5097858;28;20028;-57
2022/07/07 08:56:04;;;;;;;3.22;1.95;;;;;;;18.94;75.17;99797.47;5113112;27;20114;-57
2022/07/07 08:58:31;;;;;;;2.08;1.73;;;;;;;19.47;73.77;99805.72;5098671;27;20389;-57
2022/07/07 09:00:56;;;;;;;2.35;1.80;;;;;;;19.16;74.57;99805.19;5106869;27;20028;-58
2022/07/07 09:03:22;;;;;;;2.85;1.58;;;;;;;19.08;73.67;99803.88;5097254;27;20039;-57
2022/07/07 09:05:47;;;;;;;2.35;1.42;;;;;;;19.53;71.29;99790.97;5112369;27;20031;-57
2022/07/07 09:08:20;;;;;;;4.30;1.52;;;;;;;18.96;73.33;99793.38;5093273;27;20195;-57
2022/07/07 09:10:45;;;;;;;1.60;1.50;;;;;;;19.30;70.52;99794.47;5127461;27;20041;-56
2022/07/07 09:13:20;;;;;;;3.75;1.70;;;;;;;18.92;73.67;99794.22;5097791;27;20035;-57
2022/07/07 09:15:45;;;;;;;3.45;1.50;;;;;;;18.86;73.01;99806.25;5111941;27;20058;-57
2022/07/07 09:18:11;;;;;;;3.38;1.80;;;;;;;18.73;72.12;99813.91;5118266;27;20072;-57
2022/07/07 09:20:36;;;;;;;2.08;1.58;;;;;;;18.61;74.37;99820.78;5122839;27;20020;-57
2022/07/07 09:23:02;;;;;;;3.15;1.50;;;;;;;18.40;76.92;99830.94;5118459;27;20031;-57
2022/07/07 09:25:27;;;;;;;2.50;1.60;;;;;;;18.77;74.22;99841.34;5115482;27;20027;-57
2022/07/07 09:27:56;;;;;;;3.58;1.70;;;;;;;18.86;72.74;99827.97;5119611;27;20027;-57
2022/07/07 09:30:38;;;;;;;2.42;1.50;;;;;;;18.92;71.54;99843.13;5119635;27;20031;-58
2022/07/07 09:33:10;;;;;;;2.00;1.23;;;;;;;19.12;66.90;99826.69;5121633;27;20042;-57
2022/07/07 09:38:24;;;;;;;1.65;1.35;;;;;;;20.10;65.30;99839.31;5115625;27;20488;-58
2022/07/07 09:40:58;;;;;;;1.98;1.10;;;;;;;19.71;67.08;99849.25;5123126;27;20031;-58
2022/07/07 09:43:23;;;;;;;3.83;1.40;;;;;;;19.83;65.46;99852.38;5114790;27;20313;-58
2022/07/07 09:46:18;;;;;;;3.85;1.40;;;;;;;20.30;63.99;99849.94;5098930;28;20458;-59
2022/07/07 09:48:54;;;;;;;1.38;1.17;;;;;;;19.81;64.74;99853.78;5115658;27;20482;-57
2022/07/07 09:51:28;;;;;;;2.10;1.40;;;;;;;19.34;65.56;99858.81;5120123;27;20500;-57
2022/07/07 09:54:05;;;;;;;3.65;1.27;;;;;;;19.13;64.03;99865.53;5121496;27;20031;-57
2022/07/07 09:56:31;;;;;;;2.92;1.25;;;;;;;18.24;66.23;99881.75;5116732;27;20065;-57
2022/07/07 09:58:57;;;;;;;5.13;1.40;;;;;;;17.84;68.12;99889.72;5119646;27;20028;-57
2022/07/07 10:01:30;;;;;;;4.10;1.70;;;;;;;17.91;68.38;99897.56;5116306;27;20044;-57
2022/07/07 10:03:57;;;;;;;4.38;1.45;;;;;;;17.54;69.92;99900.56;5098749;27;20035;-57
2022/07/07 10:06:24;;;;;;;2.92;1.48;;;;;;;17.43;70.63;99906.00;5117141;27;20461;-55
2022/07/07 10:08:51;;;;;;;4.18;1.60;;;;;;;17.38;71.58;99908.72;5115933;27;20083;-56
2022/07/07 10:11:17;;;;;;;5.20;1.50;;;;;;;17.32;72.71;99904.34;5115636;27;20548;-56
2022/07/07 10:13:43;;;;;;;3.88;1.50;;;;;;;17.28;73.40;99903.28;5075182;28;20031;-56
2022/07/07 10:16:09;;;;;;;2.20;1.40;;;;;;;17.69;71.67;99919.53;5109575;27;20166;-57
2022/07/07 10:18:35;;;;;;;3.90;1.80;;;;;;;17.49;73.01;99922.25;5117138;27;20027;-56
2022/07/07 10:21:00;;;;;;;4.70;1.70;;;;;;;17.30;73.33;99917.38;5119512;27;20102;-56
2022/07/07 10:23:26;;;;;;;3.17;1.60;;;;;;;17.69;73.09;99920.34;5102797;27;20117;-56
2022/07/07 10:26:04;;;;;;;4.43;1.52;;;;;;;17.62;72.21;99933.38;5125263;27;20027;-58
2022/07/07 10:28:56;;;;;;;3.95;1.80;;;;;;;17.49;75.10;99957.50;5115682;27;20030;-56
2022/07/07 10:31:22;;;;;;;5.57;1.90;;;;;;;17.06;79.48;99940.66;5111786;27;20377;-56
2022/07/07 10:34:08;;;;;;;5.60;1.98;;;;;;;17.00;80.31;99940.63;5117896;27;20028;-56
2022/07/07 10:37:06;;;;;;;4.93;1.80;;;;;;;17.75;78.26;99951.00;5116712;27;20059;-56
2022/07/07 10:39:35;;;;;;;3.35;1.75;;;;;;;18.26;76.33;99948.19;5089128;27;20099;-56
2022/07/07 10:42:04;;;;;;;7.53;1.95;;;;;;;18.94;71.23;99946.88;5099305;28;20093;-56
2022/07/07 10:44:30;;;;;;;5.30;1.73;;;;;;;19.28;67.80;99943.41;5114467;27;20067;-56
2022/07/07 10:47:12;;;;;;;3.05;1.70;;;;;;;19.33;68.59;99946.09;5089823;27;20031;-57
2022/07/07 10:49:43;;;;;;;3.83;1.83;;;;;;;20.19;63.18;99940.97;5121399;27;20227;-57
2022/07/07 10:52:12;;;;;;;4.22;1.33;;;;;;;19.92;63.86;99942.34;5116511;27;20114;-58
2022/07/07 10:54:52;;;;;;;3.65;1.58;;;;;;;20.78;59.87;99947.91;5116685;27;20361;-55
2022/07/07 10:57:24;;;;;;;3.13;1.40;;;;;;;20.80;59.39;99937.53;5109381;28;20032;-57
2022/07/07 10:59:56;;;;;;;2.53;1.30;;;;;;;20.93;59.46;99943.38;5111396;28;20019;-57
2022/07/07 11:02:56;;;;;;;4.65;1.92;;;;;;;21.12;59.49;99946.91;5114855;28;20078;-57
2022/07/07 11:05:29;;;;;;;4.53;1.90;;;;;;;21.75;57.97;99949.19;5018350;28;20457;-55
2022/07/07 11:08:06;;;;;;;5.30;1.40;;;;;;;22.34;54.98;99955.00;5108604;27;20036;-54
2022/07/07 11:10:47;;;;;;;3.72;1.38;;;;;;;20.73;60.29;99961.59;5114223;27;20024;-57
2022/07/07 11:13:17;;;;;;;10.43;1.73;;;;;;;20.05;61.29;99970.78;5116233;27;20430;-57
2022/07/07 11:15:46;;;;;;;3.97;1.67;;;;;;;19.13;64.10;99966.84;5114748;27;20046;-57
2022/07/07 11:18:13;;;;;;;6.45;1.80;;;;;;;18.80;67.14;99978.47;5121076;27;20160;-57
2022/07/07 11:20:58;;;;;;;7.13;1.65;;;;;;;18.47;69.37;99967.97;5103088;27;20415;-57
2022/07/07 11:23:41;;;;;;;7.68;1.80;;;;;;;18.84;67.54;99982.22;5124821;27;20032;-57
2022/07/07 11:26:06;;;;;;;4.15;1.65;;;;;;;19.43;64.73;99972.38;5075841;28;20190;-56
2022/07/07 11:28:32;;;;;;;3.30;1.50;;;;;;;19.76;62.51;99968.06;5094956;27;20020;-58
2022/07/07 11:31:07;;;;;;;8.95;1.98;;;;;;;20.19;62.21;99969.03;5102959;27;20019;-56
2022/07/07 11:33:33;;;;;;;7.70;2.10;;;;;;;20.12;59.88;99965.00;5121568;27;20104;-57
2022/07/07 11:35:59;;;;;;;4.18;1.50;;;;;;;19.63;61.45;99974.94;5124071;27;20027;-57